createdAt,value
2018-12-02T00:00:35.484Z,99.90
2018-12-02T00:03:04.755Z,99.90
2018-12-02T00:05:32.526Z,99.90
2018-12-02T00:08:00.267Z,99.90
2018-12-02T00:10:28.027Z,99.90
2018-12-02T00:12:55.729Z,99.90
2018-12-02T00:15:25.514Z,99.90
2018-12-02T00:17:54.392Z,99.90
2018-12-02T00:20:22.095Z,99.90
2018-12-02T00:22:50.619Z,99.90
2018-12-02T00:25:17.599Z,99.90
2018-12-02T00:27:50.108Z,99.90
2018-12-02T00:30:20.579Z,99.90
2018-12-02T00:32:48.313Z,99.90
2018-12-02T00:35:16.759Z,99.90
2018-12-02T00:37:45.447Z,99.90
2018-12-02T00:40:16.862Z,99.90
2018-12-02T00:42:45.846Z,99.90
2018-12-02T00:45:14.635Z,99.90
2018-12-02T00:47:42.306Z,99.90
2018-12-02T00:50:11.027Z,99.90
2018-12-02T00:52:38.924Z,99.90
2018-12-02T00:55:25.181Z,99.90
2018-12-02T00:57:52.833Z,99.90
2018-12-02T01:00:20.600Z,99.90
2018-12-02T01:02:49.089Z,99.90
2018-12-02T01:05:17.781Z,99.90
2018-12-02T01:07:45.533Z,99.90
2018-12-02T01:10:17.369Z,99.90
2018-12-02T01:12:45.540Z,99.90
2018-12-02T01:15:15.508Z,99.90
2018-12-02T01:17:43.396Z,99.90
2018-12-02T01:20:16.425Z,99.90
2018-12-02T01:22:44.403Z,99.90
2018-12-02T01:25:13.191Z,99.90
2018-12-02T01:27:41.569Z,99.90
2018-12-02T01:30:13.715Z,99.90
2018-12-02T01:32:41.798Z,99.90
2018-12-02T01:35:10.322Z,99.90
2018-12-02T01:37:38.185Z,99.90
2018-12-02T01:40:10.841Z,99.90
2018-12-02T01:42:39.030Z,99.90
2018-12-02T01:45:09.197Z,99.90
2018-12-02T01:47:37.181Z,99.90
2018-12-02T01:50:09.667Z,99.90
2018-12-02T01:52:37.687Z,99.90
2018-12-02T01:55:06.128Z,99.90
2018-12-02T01:57:34.071Z,99.90
2018-12-02T02:00:02.717Z,99.90
2018-12-02T02:02:30.717Z,99.90
2018-12-02T02:04:58.682Z,99.90
2018-12-02T02:07:26.771Z,99.90
2018-12-02T02:09:54.793Z,99.90
2018-12-02T02:12:22.706Z,99.90
2018-12-02T02:14:50.717Z,99.90
2018-12-02T02:17:18.426Z,99.90
2018-12-02T02:19:46.177Z,99.90
2018-12-02T02:22:13.840Z,99.90
2018-12-02T02:24:41.510Z,99.90
2018-12-02T02:27:09.240Z,99.90
2018-12-02T02:29:36.938Z,99.90
2018-12-02T02:32:05.254Z,99.90
2018-12-02T02:34:32.900Z,99.90
2018-12-02T02:37:00.580Z,99.90
2018-12-02T02:39:28.613Z,99.90
2018-12-02T02:41:56.371Z,99.90
2018-12-02T02:44:24.278Z,99.90
2018-12-02T02:46:52.130Z,99.90
2018-12-02T02:49:19.828Z,99.80
2018-12-02T02:51:47.578Z,99.90
2018-12-02T02:54:15.249Z,99.90
2018-12-02T02:56:43.035Z,99.90
2018-12-02T02:59:10.686Z,99.80
2018-12-02T03:01:38.356Z,99.90
2018-12-02T03:04:06.128Z,99.90
2018-12-02T03:06:33.831Z,99.90
2018-12-02T03:09:01.591Z,99.90
2018-12-02T03:11:29.296Z,99.90
2018-12-02T03:13:57.001Z,99.90
2018-12-02T03:16:24.689Z,99.90
2018-12-02T03:18:52.355Z,99.90
2018-12-02T03:21:20.114Z,99.90
2018-12-02T03:23:47.839Z,99.90
2018-12-02T03:26:15.666Z,99.90
2018-12-02T03:28:43.531Z,99.90
2018-12-02T03:31:11.480Z,99.90
2018-12-02T03:33:39.496Z,99.90
2018-12-02T03:36:07.327Z,99.90
2018-12-02T03:38:35.183Z,99.90
2018-12-02T03:41:03.135Z,99.90
2018-12-02T03:43:31.016Z,99.90
2018-12-02T03:45:58.949Z,99.90
2018-12-02T03:48:27.029Z,99.90
2018-12-02T03:50:54.936Z,99.90
2018-12-02T03:53:22.853Z,99.90
2018-12-02T03:55:50.743Z,99.90
2018-12-02T03:58:18.697Z,99.90
2018-12-02T04:00:46.599Z,99.90
2018-12-02T04:03:14.488Z,99.90
2018-12-02T04:05:42.228Z,99.90
2018-12-02T04:08:09.915Z,99.90
2018-12-02T04:10:37.846Z,99.90
2018-12-02T04:13:05.787Z,99.90
2018-12-02T04:15:33.659Z,99.90
2018-12-02T04:18:01.535Z,99.90
2018-12-02T04:20:29.327Z,99.90
2018-12-02T04:22:57.175Z,99.90
2018-12-02T04:25:26.204Z,99.90
2018-12-02T04:27:54.004Z,99.90
2018-12-02T04:30:22.511Z,99.90
2018-12-02T04:32:51.232Z,99.90
2018-12-02T04:35:20.926Z,99.90
2018-12-02T04:37:48.854Z,99.90
2018-12-02T04:40:16.939Z,99.90
2018-12-02T04:42:44.974Z,99.90
2018-12-02T04:45:14.693Z,99.90
2018-12-02T04:47:42.460Z,99.90
2018-12-02T04:50:15.201Z,99.90
2018-12-02T04:52:42.938Z,99.90
2018-12-02T04:55:10.997Z,99.90
2018-12-02T04:57:39.010Z,99.90
2018-12-02T05:00:15.471Z,99.90
2018-12-02T05:02:45.104Z,99.90
2018-12-02T05:05:14.045Z,99.90
2018-12-02T05:07:42.188Z,99.90
2018-12-02T05:10:11.472Z,99.90
2018-12-02T05:12:39.852Z,99.90
2018-12-02T05:15:13.759Z,99.90
2018-12-02T05:17:41.505Z,99.90
2018-12-02T05:20:11.341Z,99.90
2018-12-02T05:22:39.207Z,99.90
2018-12-02T05:25:08.411Z,99.90
2018-12-02T05:27:36.246Z,99.90
2018-12-02T05:30:06.939Z,99.90
2018-12-02T05:32:34.792Z,99.90
2018-12-02T05:35:02.734Z,99.90
2018-12-02T05:37:30.732Z,99.90
2018-12-02T05:39:58.491Z,99.90
2018-12-02T05:42:32.891Z,99.90
2018-12-02T05:45:01.140Z,99.90
2018-12-02T05:47:28.794Z,99.90
2018-12-02T05:49:56.635Z,99.90
2018-12-02T05:52:24.463Z,99.90
2018-12-02T05:54:52.381Z,99.90
2018-12-02T05:57:20.221Z,99.90
2018-12-02T06:00:50.735Z,99.90
2018-12-02T06:03:18.529Z,99.90
2018-12-02T06:05:46.208Z,99.90
2018-12-02T06:08:13.927Z,99.90
2018-12-02T06:10:41.817Z,99.90
2018-12-02T06:13:09.512Z,99.90
2018-12-02T06:15:37.316Z,99.90
2018-12-02T06:18:05.426Z,99.90
2018-12-02T06:20:33.166Z,99.90
2018-12-02T06:23:01.184Z,99.90
2018-12-02T06:25:28.942Z,99.90
2018-12-02T06:27:56.863Z,99.90
2018-12-02T06:30:25.697Z,99.90
2018-12-02T06:32:55.620Z,99.90
2018-12-02T06:35:23.340Z,99.90
2018-12-02T06:37:51.914Z,99.90
2018-12-02T06:40:21.626Z,99.90
2018-12-02T06:42:49.649Z,99.90
2018-12-02T06:45:17.470Z,99.90
2018-12-02T06:47:45.158Z,99.90
2018-12-02T06:50:15.812Z,99.90
2018-12-02T06:52:43.607Z,99.90
2018-12-02T06:55:14.433Z,99.90
2018-12-02T06:57:43.115Z,99.90
2018-12-02T07:00:18.757Z,99.90
2018-12-02T07:02:52.146Z,99.90
2018-12-02T07:05:23.255Z,99.90
2018-12-02T07:07:51.084Z,99.90
2018-12-02T07:10:18.948Z,99.90
2018-12-02T07:12:46.724Z,99.90
2018-12-02T07:15:14.585Z,99.90
2018-12-02T07:17:42.438Z,99.90
2018-12-02T07:20:10.374Z,99.90
2018-12-02T07:22:38.342Z,99.90
2018-12-02T07:25:07.171Z,99.90
2018-12-02T07:27:35.072Z,99.90
2018-12-02T07:30:03.126Z,99.90
2018-12-02T07:32:31.152Z,99.90
2018-12-02T07:34:58.935Z,99.90
2018-12-02T07:37:26.852Z,99.90
2018-12-02T07:40:06.399Z,99.90
2018-12-02T07:42:34.200Z,99.90
2018-12-02T07:45:01.884Z,99.90
2018-12-02T07:47:29.927Z,99.90
2018-12-02T07:49:57.968Z,99.90
2018-12-02T07:52:25.775Z,99.90
2018-12-02T07:54:53.963Z,99.90
2018-12-02T07:57:21.829Z,99.90
2018-12-02T07:59:49.672Z,99.90
2018-12-02T08:02:18.237Z,99.90
2018-12-02T08:04:45.362Z,99.90
2018-12-02T08:07:13.413Z,99.90
2018-12-02T08:09:41.363Z,99.90
2018-12-02T08:12:10.050Z,99.90
2018-12-02T08:14:37.788Z,99.90
2018-12-02T08:17:05.999Z,99.90
2018-12-02T08:19:33.780Z,99.90
2018-12-02T08:22:01.431Z,99.90
2018-12-02T08:24:29.389Z,99.90
2018-12-02T08:26:57.019Z,99.90
2018-12-02T08:29:25.043Z,99.90
2018-12-02T08:31:53.174Z,99.90
2018-12-02T08:34:21.094Z,99.90
2018-12-02T08:36:49.134Z,99.90
2018-12-02T08:39:17.339Z,99.80
2018-12-02T08:41:45.351Z,99.80
2018-12-02T08:44:13.266Z,99.90
2018-12-02T08:46:41.054Z,99.90
2018-12-02T08:49:09.181Z,99.80
2018-12-02T08:51:37.012Z,99.80
2018-12-02T08:54:05.024Z,99.70
2018-12-02T08:56:33.019Z,99.90
2018-12-02T08:59:01.016Z,99.90
2018-12-02T09:01:28.911Z,99.90
2018-12-02T09:03:56.922Z,99.90
2018-12-02T09:06:24.763Z,99.90
2018-12-02T09:08:52.627Z,99.90
2018-12-02T09:11:20.478Z,99.90
2018-12-02T09:13:48.399Z,99.90
2018-12-02T09:16:16.560Z,99.90
2018-12-02T09:18:44.413Z,99.90
2018-12-02T09:21:12.422Z,99.90
2018-12-02T09:23:40.363Z,99.90
2018-12-02T09:26:08.353Z,99.90
2018-12-02T09:28:36.343Z,99.90
2018-12-02T09:31:04.212Z,99.90
2018-12-02T09:33:32.249Z,99.90
2018-12-02T09:36:00.416Z,99.90
2018-12-02T09:38:28.451Z,99.90
2018-12-02T09:40:56.428Z,99.90
2018-12-02T09:43:24.268Z,99.90
2018-12-02T09:45:52.593Z,99.90
2018-12-02T09:48:20.486Z,99.90
2018-12-02T09:50:48.498Z,99.90
2018-12-02T09:53:16.367Z,99.90
2018-12-02T09:55:45.846Z,99.90
2018-12-02T09:58:24.587Z,99.90
2018-12-02T10:00:52.929Z,99.90
2018-12-02T10:03:20.906Z,99.90
2018-12-02T10:05:48.773Z,99.90
2018-12-02T10:08:16.872Z,99.90
2018-12-02T10:10:44.874Z,99.90
2018-12-02T10:13:14.524Z,99.90
2018-12-02T10:15:43.293Z,99.90
2018-12-02T10:18:11.126Z,99.90
2018-12-02T10:20:39.192Z,99.90
2018-12-02T10:23:07.816Z,99.90
2018-12-02T10:25:35.788Z,99.70
2018-12-02T10:28:03.684Z,99.80
2018-12-02T10:30:31.760Z,99.90
2018-12-02T10:32:59.769Z,99.90
2018-12-02T10:35:27.999Z,99.90
2018-12-02T10:37:56.220Z,99.90
2018-12-02T10:40:25.279Z,99.90
2018-12-02T10:42:53.448Z,99.90
2018-12-02T10:45:22.201Z,99.90
2018-12-02T10:47:57.884Z,99.90
2018-12-02T10:50:30.638Z,99.90
2018-12-02T10:52:59.930Z,99.90
2018-12-02T10:55:40.422Z,98.90
2018-12-02T10:58:11.394Z,99.10
2018-12-02T11:00:45.168Z,99.20
2018-12-02T11:03:13.171Z,99.50
2018-12-02T11:05:41.483Z,99.50
2018-12-02T11:08:10.248Z,99.10
2018-12-02T11:10:38.876Z,98.80
2018-12-02T11:13:07.495Z,98.80
2018-12-02T11:15:35.993Z,98.60
2018-12-02T11:18:05.009Z,98.70
2018-12-02T11:20:33.278Z,99.30
2018-12-02T11:23:02.278Z,98.90
2018-12-02T11:25:31.085Z,98.90
2018-12-02T11:27:59.438Z,99.30
2018-12-02T11:30:27.943Z,99.00
2018-12-02T11:32:56.259Z,99.60
2018-12-02T11:35:24.737Z,99.90
2018-12-02T11:37:53.154Z,99.90
2018-12-02T11:40:22.557Z,99.90
2018-12-02T11:42:52.627Z,99.50
2018-12-02T11:45:21.781Z,99.60
2018-12-02T11:47:53.546Z,99.70
2018-12-02T11:50:23.131Z,99.90
2018-12-02T11:52:51.634Z,99.90
2018-12-02T11:55:21.022Z,99.90
2018-12-02T11:57:49.964Z,99.90
2018-12-02T12:00:24.539Z,99.60
2018-12-02T12:02:54.273Z,99.40
2018-12-02T12:05:23.248Z,99.30
2018-12-02T12:07:51.863Z,99.30
2018-12-02T12:10:22.323Z,99.30
2018-12-02T12:12:51.587Z,99.20
2018-12-02T12:15:22.455Z,98.60
2018-12-02T12:17:51.138Z,98.30
2018-12-02T12:20:24.883Z,98.50
2018-12-02T12:22:53.483Z,98.80
2018-12-02T12:25:22.173Z,98.00
2018-12-02T12:27:51.453Z,98.10
2018-12-02T12:30:34.767Z,97.80
2018-12-02T12:33:03.146Z,98.30
2018-12-02T12:35:31.739Z,98.40
2018-12-02T12:38:00.180Z,97.80
2018-12-02T12:40:32.915Z,97.90
2018-12-02T12:43:38.326Z,97.90
2018-12-02T12:46:07.817Z,97.90
2018-12-02T12:48:36.215Z,97.80
2018-12-02T12:51:04.834Z,97.90
2018-12-02T12:53:33.974Z,98.30
2018-12-02T12:56:02.629Z,98.60
2018-12-02T12:58:31.085Z,98.70
2018-12-02T13:00:59.613Z,98.00
2018-12-02T13:03:28.099Z,97.90
2018-12-02T13:05:57.427Z,98.30
2018-12-02T13:08:26.535Z,98.60
2018-12-02T13:10:55.221Z,98.40
2018-12-02T13:13:23.671Z,98.30
2018-12-02T13:15:52.342Z,98.50
2018-12-02T13:18:20.874Z,98.20
2018-12-02T13:20:54.225Z,98.60
2018-12-02T13:23:23.142Z,98.50
2018-12-02T13:25:51.845Z,98.30
2018-12-02T13:28:20.573Z,98.30
2018-12-02T13:30:49.110Z,98.10
2018-12-02T13:33:17.573Z,98.20
2018-12-02T13:35:46.218Z,98.30
2018-12-02T13:38:14.923Z,98.60
2018-12-02T13:40:43.967Z,98.50
2018-12-02T13:43:19.859Z,98.80
2018-12-02T13:45:48.906Z,98.60
2018-12-02T13:48:17.601Z,98.40
2018-12-02T13:50:46.357Z,98.70
2018-12-02T13:53:15.018Z,99.00
2018-12-02T13:55:43.745Z,99.30
2018-12-02T13:58:12.238Z,99.10
2018-12-02T14:00:42.094Z,99.10
2018-12-02T14:03:14.316Z,99.20
2018-12-02T14:05:46.142Z,98.80
2018-12-02T14:08:14.720Z,98.90
2018-12-02T14:10:44.844Z,99.10
2018-12-02T14:13:15.876Z,99.40
2018-12-02T14:16:01.114Z,99.40
2018-12-02T14:18:34.407Z,99.40
2018-12-02T14:21:02.963Z,99.20
2018-12-02T14:23:31.882Z,99.10
2018-12-02T14:26:02.182Z,99.10
2018-12-02T14:29:06.209Z,99.10
2018-12-02T14:31:36.509Z,99.40
2018-12-02T14:34:05.616Z,99.20
2018-12-02T14:36:34.373Z,99.40
2018-12-02T14:39:04.656Z,99.10
2018-12-02T14:41:33.352Z,99.00
2018-12-02T14:44:01.882Z,98.90
2018-12-02T14:46:30.291Z,99.00
2018-12-02T14:48:59.108Z,99.40
2018-12-02T14:51:27.894Z,99.30
2018-12-02T14:53:56.837Z,99.80
2018-12-02T14:56:26.673Z,99.70
2018-12-02T14:58:55.162Z,99.80
2018-12-02T15:01:23.837Z,99.90
2018-12-02T15:03:52.289Z,99.70
2018-12-02T15:06:21.127Z,99.80
2018-12-02T15:08:49.696Z,99.80
2018-12-02T15:11:18.381Z,99.90
2018-12-02T15:13:47.041Z,99.90
2018-12-02T15:16:15.674Z,99.90
2018-12-02T15:18:44.179Z,99.80
2018-12-02T15:21:12.859Z,99.30
2018-12-02T15:23:41.634Z,99.50
2018-12-02T15:26:10.110Z,99.90
2018-12-02T15:28:38.765Z,99.70
2018-12-02T15:31:07.224Z,99.90
2018-12-02T15:33:35.721Z,99.90
2018-12-02T15:36:04.318Z,99.90
2018-12-02T15:38:32.860Z,99.90
2018-12-02T15:41:02.124Z,99.90
2018-12-02T15:43:30.830Z,99.90
2018-12-02T15:45:59.640Z,99.90
2018-12-02T15:48:28.130Z,99.90
2018-12-02T15:50:56.811Z,99.90
2018-12-02T15:53:25.396Z,99.90
2018-12-02T15:55:54.201Z,99.90
2018-12-02T15:58:23.356Z,99.90
2018-12-02T16:00:52.147Z,99.90
2018-12-02T16:03:21.199Z,99.90
2018-12-02T16:05:49.850Z,99.90
2018-12-02T16:08:18.584Z,99.90
2018-12-02T16:10:47.305Z,99.90
2018-12-02T16:13:16.157Z,99.90
2018-12-02T16:15:44.828Z,99.90
2018-12-02T16:18:14.917Z,99.90
2018-12-02T16:20:49.969Z,99.90
2018-12-02T16:23:22.724Z,99.90
2018-12-02T16:25:51.168Z,99.90
2018-12-02T16:28:19.939Z,99.90
2018-12-02T16:30:51.610Z,99.90
2018-12-02T16:33:20.357Z,99.90
2018-12-02T16:35:49.013Z,99.90
2018-12-02T16:38:17.923Z,99.90
2018-12-02T16:40:46.608Z,99.90
2018-12-02T16:43:15.391Z,99.90
2018-12-02T16:45:44.126Z,99.90
2018-12-02T16:48:13.844Z,99.90
2018-12-02T16:50:43.941Z,99.90
2018-12-02T16:53:18.280Z,99.90
2018-12-02T16:55:55.384Z,99.90
2018-12-02T16:58:32.408Z,99.90
2018-12-02T17:01:05.330Z,99.90
2018-12-02T17:03:34.100Z,99.90
2018-12-02T17:06:02.841Z,99.90
2018-12-02T17:08:31.665Z,99.90
2018-12-02T17:11:00.310Z,99.90
2018-12-02T17:13:29.187Z,99.90
2018-12-02T17:15:58.073Z,99.90
2018-12-02T17:18:27.050Z,99.90
2018-12-02T17:20:56.789Z,99.90
2018-12-02T17:23:25.996Z,99.90
2018-12-02T17:25:55.019Z,99.90
2018-12-02T17:28:28.865Z,99.90
2018-12-02T17:31:09.524Z,99.90
2018-12-02T17:33:38.247Z,99.90
2018-12-02T17:36:07.102Z,99.90
2018-12-02T17:38:36.396Z,99.90
2018-12-02T17:41:08.779Z,99.90
2018-12-02T17:43:37.497Z,99.90
2018-12-02T17:46:06.933Z,99.90
2018-12-02T17:48:35.649Z,99.90
2018-12-02T17:51:04.579Z,99.90
2018-12-02T17:53:33.219Z,99.90
2018-12-02T17:56:01.993Z,99.90
2018-12-02T17:58:30.609Z,99.90
2018-12-02T18:01:00.140Z,99.90
2018-12-02T18:03:31.568Z,99.90
2018-12-02T18:06:00.363Z,99.90
2018-12-02T18:08:29.036Z,99.90
2018-12-02T18:10:58.214Z,99.90
2018-12-02T18:13:27.161Z,99.90
2018-12-02T18:15:56.318Z,99.90
2018-12-02T18:18:25.054Z,99.90
2018-12-02T18:20:53.979Z,99.90
2018-12-02T18:23:22.634Z,99.90
2018-12-02T18:25:52.923Z,99.90
2018-12-02T18:28:22.309Z,99.90
2018-12-02T18:30:51.025Z,99.90
2018-12-02T18:33:19.664Z,99.90
2018-12-02T18:35:55.473Z,99.90
2018-12-02T18:38:25.513Z,99.90
2018-12-02T18:40:59.714Z,99.90
2018-12-02T18:43:28.651Z,99.90
2018-12-02T18:45:57.431Z,99.90
2018-12-02T18:48:26.616Z,99.90
2018-12-02T18:50:55.576Z,99.90
2018-12-02T18:53:24.330Z,99.90
2018-12-02T18:56:23.842Z,99.90
2018-12-02T18:58:53.526Z,99.90
2018-12-02T19:01:22.183Z,99.90
2018-12-02T19:03:51.242Z,99.90
2018-12-02T19:06:19.750Z,99.90
2018-12-02T19:08:49.018Z,99.90
2018-12-02T19:11:18.076Z,99.90
2018-12-02T19:13:47.405Z,99.90
2018-12-02T19:16:15.875Z,99.90
2018-12-02T19:18:45.544Z,99.90
2018-12-02T19:21:19.783Z,99.90
2018-12-02T19:23:48.996Z,99.90
2018-12-02T19:26:18.268Z,99.90
2018-12-02T19:28:48.963Z,99.90
2018-12-02T19:31:17.842Z,99.90
2018-12-02T19:33:47.772Z,99.90
2018-12-02T19:36:19.690Z,99.90
2018-12-02T19:38:49.661Z,99.90
2018-12-02T19:41:19.320Z,99.90
2018-12-02T19:43:48.219Z,99.90
2018-12-02T19:46:17.159Z,99.90
2018-12-02T19:48:45.939Z,99.90
2018-12-02T19:51:14.728Z,99.90
2018-12-02T19:53:45.283Z,99.90
2018-12-02T19:56:14.981Z,99.90
2018-12-02T19:58:44.105Z,99.90
2018-12-02T20:01:13.083Z,99.90
2018-12-02T20:03:42.181Z,99.90
2018-12-02T20:06:10.893Z,99.90
2018-12-02T20:08:40.477Z,99.90
2018-12-02T20:11:09.453Z,99.90
2018-12-02T20:13:38.186Z,99.90
2018-12-02T20:16:12.249Z,99.90
2018-12-02T20:18:41.014Z,99.90
2018-12-02T20:21:10.288Z,99.90
2018-12-02T20:23:44.227Z,99.90
2018-12-02T20:26:14.062Z,99.90
2018-12-02T20:28:48.450Z,99.90
2018-12-02T20:31:20.803Z,99.90
2018-12-02T20:33:49.986Z,99.90
2018-12-02T20:36:18.644Z,99.90
2018-12-02T20:38:47.442Z,99.90
2018-12-02T20:41:17.358Z,99.90
2018-12-02T20:43:46.561Z,99.90
2018-12-02T20:46:15.473Z,99.90
2018-12-02T20:48:44.574Z,99.90
2018-12-02T20:51:44.062Z,99.90
2018-12-02T20:54:12.749Z,99.90
2018-12-02T20:56:41.865Z,99.90
2018-12-02T20:59:11.046Z,99.90
2018-12-02T21:01:39.951Z,99.90
2018-12-02T21:04:11.050Z,99.90
2018-12-02T21:06:40.533Z,99.90
2018-12-02T21:09:09.061Z,99.90
2018-12-02T21:11:40.549Z,99.90
2018-12-02T21:14:06.848Z,99.90
2018-12-02T21:16:35.336Z,99.90
2018-12-02T21:19:04.032Z,99.90
2018-12-02T21:21:37.074Z,99.90
2018-12-02T21:24:01.066Z,99.90
2018-12-02T21:26:29.765Z,99.90
2018-12-02T21:28:58.292Z,99.90
2018-12-02T21:31:27.044Z,99.90
2018-12-02T21:33:56.308Z,99.90
2018-12-02T21:36:24.854Z,99.90
2018-12-02T21:38:53.605Z,99.90
2018-12-02T21:41:24.251Z,99.90
2018-12-02T21:43:54.136Z,99.90
2018-12-02T21:46:22.982Z,99.90
2018-12-02T21:48:53.057Z,99.90
2018-12-02T21:51:22.441Z,99.90
2018-12-02T21:53:50.874Z,99.90
2018-12-02T21:56:19.438Z,99.90
2018-12-02T21:58:48.253Z,99.90
2018-12-02T22:01:17.141Z,99.90
2018-12-02T22:03:45.754Z,99.90
2018-12-02T22:06:14.203Z,99.90
2018-12-02T22:08:43.022Z,99.90
2018-12-02T22:11:11.598Z,99.90
2018-12-02T22:13:43.373Z,99.90
2018-12-02T22:16:08.817Z,99.90
2018-12-02T22:18:37.328Z,99.90
2018-12-02T22:21:05.689Z,99.90
2018-12-02T22:23:34.216Z,99.90
2018-12-02T22:26:02.769Z,99.90
2018-12-02T22:28:31.035Z,99.90
2018-12-02T22:30:59.054Z,99.90
2018-12-02T22:33:27.253Z,99.90
2018-12-02T22:35:55.320Z,99.90
2018-12-02T22:38:23.158Z,99.90
2018-12-02T22:40:51.191Z,99.90
2018-12-02T22:43:19.262Z,99.90
2018-12-02T22:45:46.904Z,99.90
2018-12-02T22:48:14.640Z,99.90
2018-12-02T22:50:42.517Z,99.90
2018-12-02T22:53:10.121Z,99.90
2018-12-02T22:55:37.974Z,99.90
2018-12-02T22:58:06.321Z,99.90
2018-12-02T23:00:39.936Z,99.90
2018-12-02T23:03:12.867Z,99.90
2018-12-02T23:05:42.759Z,99.90
2018-12-02T23:08:10.532Z,99.90
2018-12-02T23:10:38.520Z,99.90
2018-12-02T23:13:07.521Z,99.90
2018-12-02T23:15:35.385Z,99.90
2018-12-02T23:18:03.152Z,99.90
2018-12-02T23:20:30.870Z,99.90
2018-12-02T23:22:58.768Z,99.90
2018-12-02T23:25:26.455Z,99.90
2018-12-02T23:27:54.168Z,99.90
2018-12-02T23:30:23.402Z,99.90
2018-12-02T23:32:51.198Z,99.90
2018-12-02T23:35:18.917Z,99.90
2018-12-02T23:37:46.553Z,99.90
2018-12-02T23:40:17.500Z,99.90
2018-12-02T23:42:45.510Z,99.90
2018-12-02T23:45:13.867Z,99.90
2018-12-02T23:47:41.805Z,99.90
2018-12-02T23:50:11.675Z,99.90
2018-12-02T23:52:39.650Z,99.90
2018-12-02T23:55:08.930Z,99.90
2018-12-02T23:57:36.572Z,99.90
